Time;durP1;ratioP1;P1;durP2;ratioP2;P2;SDS_P1;SDS_P2;PMS_P1;PMS_P2;Temp;Humidity;BMP_temperature;BMP_pressure;BME280_temperature;BME280_humidity;BME280_pressure;Samples;Min_cycle;Max_cycle;Signal;HPM_P1;HPM_P2
2021/07/05 00:00:25;;;;;;;4.15;1.45;;;17.30;61.80;;;;;;5085717;28;20139;-49
2021/07/05 00:02:53;;;;;;;3.08;1.13;;;17.40;61.00;;;;;;5083612;28;20044;-52
2021/07/05 00:05:22;;;;;;;6.65;1.50;;;17.50;59.90;;;;;;5075417;28;20071;-56
2021/07/05 00:07:50;;;;;;;3.33;1.20;;;17.60;59.50;;;;;;5091051;28;20475;-52
2021/07/05 00:10:21;;;;;;;2.20;1.13;;;17.60;60.50;;;;;;5091940;28;20036;-58
2021/07/05 00:12:49;;;;;;;4.03;1.67;;;17.80;59.90;;;;;;5091138;28;20098;-57
2021/07/05 00:15:26;;;;;;;3.72;1.65;;;17.80;59.50;;;;;;5090482;28;20028;-56
2021/07/05 00:17:58;;;;;;;1.55;1.15;;;17.90;60.00;;;;;;5096476;28;20523;-57
2021/07/05 00:20:28;;;;;;;2.58;1.35;;;18.00;60.20;;;;;;5112008;28;20085;-53
2021/07/05 00:22:56;;;;;;;2.15;1.10;;;18.10;58.50;;;;;;5110812;28;20494;-49
2021/07/05 00:25:24;;;;;;;4.18;2.03;;;18.30;58.80;;;;;;5079279;28;20126;-56
2021/07/05 00:27:51;;;;;;;3.03;1.30;;;18.40;59.00;;;;;;5075661;28;20040;-54
2021/07/05 00:30:21;;;;;;;2.10;1.30;;;18.50;58.30;;;;;;5072514;28;20141;-54
2021/07/05 00:32:51;;;;;;;2.03;1.25;;;18.50;59.00;;;;;;5070712;28;20696;-54
2021/07/05 00:35:20;;;;;;;5.75;1.20;;;18.70;58.20;;;;;;5075417;28;20059;-59
2021/07/05 00:37:51;;;;;;;7.25;1.55;;;18.80;57.80;;;;;;5090686;28;20028;-58
2021/07/05 00:40:21;;;;;;;5.15;0.90;;;18.80;57.20;;;;;;5091610;28;20058;-60
2021/07/05 00:42:49;;;;;;;2.28;1.55;;;18.80;58.00;;;;;;5091313;28;20146;-55
2021/07/05 00:45:22;;;;;;;5.15;1.40;;;18.90;56.20;;;;;;5088915;28;20040;-52
2021/07/05 00:47:49;;;;;;;;;;;18.90;57.70;;;;;;5080142;28;20039;-54
2021/07/05 00:50:18;;;;;;;2.65;1.00;;;19.00;57.30;;;;;;5086594;28;19923;-54
2021/07/05 00:52:48;;;;;;;2.35;1.15;;;19.10;55.40;;;;;;5070871;28;20131;-58
2021/07/05 00:55:18;;;;;;;3.85;1.13;;;19.20;56.80;;;;;;5076719;28;20043;-53
2021/07/05 00:57:45;;;;;;;1.63;0.90;;;19.30;57.10;;;;;;5087877;28;20021;-54
2021/07/05 01:00:16;;;;;;;2.28;0.85;;;19.30;56.30;;;;;;5070853;28;20118;-55
2021/07/05 01:02:44;;;;;;;3.33;1.20;;;19.40;57.20;;;;;;5071282;28;20028;-55
2021/07/05 01:05:12;;;;;;;2.53;1.13;;;19.40;54.70;;;;;;5085998;28;20103;-57
2021/07/05 01:07:40;;;;;;;1.20;0.95;;;19.50;55.40;;;;;;5090569;28;20123;-53
2021/07/05 01:10:09;;;;;;;1.65;1.02;;;19.50;56.70;;;;;;5091128;28;20422;-54
2021/07/05 01:12:38;;;;;;;3.75;1.38;;;19.60;56.80;;;;;;5090846;28;20347;-57
2021/07/05 01:15:08;;;;;;;1.02;0.70;;;19.60;55.30;;;;;;5090952;28;20042;-57
2021/07/05 01:17:36;;;;;;;2.00;0.90;;;19.60;56.10;;;;;;5090730;28;20085;-54
2021/07/05 01:20:12;;;;;;;2.75;1.02;;;19.80;55.60;;;;;;5089882;28;20060;-54
2021/07/05 01:22:39;;;;;;;1.77;0.90;;;20.00;54.30;;;;;;5087815;28;20024;-55
2021/07/05 01:25:10;;;;;;;1.70;0.80;;;20.00;56.40;;;;;;5109796;28;20454;-56
2021/07/05 01:27:38;;;;;;;2.85;0.65;;;20.00;54.50;;;;;;5089257;28;20076;-57
2021/07/05 01:30:09;;;;;;;1.35;0.90;;;20.00;55.60;;;;;;5070363;28;20485;-58
2021/07/05 01:32:37;;;;;;;2.25;0.85;;;20.10;55.60;;;;;;5087164;28;20067;-55
2021/07/05 01:35:06;;;;;;;3.83;0.98;;;20.10;54.70;;;;;;5089371;28;20079;-56
2021/07/05 01:37:34;;;;;;;3.05;1.13;;;20.10;55.90;;;;;;5088721;28;20059;-61
2021/07/05 01:40:02;;;;;;;4.03;0.68;;;20.20;54.50;;;;;;5070091;28;20478;-55
2021/07/05 01:42:29;;;;;;;5.22;1.10;;;20.30;53.80;;;;;;5070535;28;20043;-55
2021/07/05 01:44:57;;;;;;;2.78;1.00;;;20.30;54.60;;;;;;5089999;28;20043;-55
2021/07/05 01:47:24;;;;;;;3.97;1.00;;;20.40;53.90;;;;;;5088190;28;20028;-57
2021/07/05 01:49:52;;;;;;;2.83;1.00;;;20.50;53.70;;;;;;5079883;28;20028;-59
2021/07/05 01:52:19;;;;;;;0.98;0.70;;;20.60;55.20;;;;;;5087770;28;20082;-55
2021/07/05 01:54:47;;;;;;;1.20;0.50;;;20.60;53.40;;;;;;5087462;28;20028;-51
2021/07/05 01:57:27;;;;;;;1.65;0.65;;;20.70;54.30;;;;;;5083965;28;20066;-56
2021/07/05 01:59:58;;;;;;;2.00;1.00;;;20.80;53.50;;;;;;5085448;28;20020;-48
2021/07/05 02:02:27;;;;;;;1.40;0.60;;;20.80;54.90;;;;;;5084674;28;20072;-59
2021/07/05 02:04:58;;;;;;;1.50;1.02;;;20.80;53.10;;;;;;5084644;28;20051;-54
2021/07/05 02:07:26;;;;;;;2.17;0.60;;;20.90;54.30;;;;;;5086262;28;20046;-55
2021/07/05 02:09:53;;;;;;;3.88;0.75;;;21.00;54.90;;;;;;5084737;28;20083;-51
2021/07/05 02:12:21;;;;;;;2.30;0.90;;;21.10;54.10;;;;;;5087668;28;20501;-48
2021/07/05 02:14:48;;;;;;;7.45;1.48;;;21.20;53.70;;;;;;5079040;28;20082;-50
2021/07/05 02:17:16;;;;;;;3.25;0.88;;;21.40;53.70;;;;;;5080805;28;20024;-50
2021/07/05 02:19:43;;;;;;;3.33;0.70;;;21.30;54.60;;;;;;5086057;28;20032;-55
2021/07/05 02:22:12;;;;;;;1.52;1.00;;;21.40;52.50;;;;;;5087102;28;20111;-54
2021/07/05 02:24:45;;;;;;;1.98;0.98;;;21.40;53.20;;;;;;5081363;28;20268;-49
2021/07/05 02:27:14;;;;;;;1.17;0.60;;;21.40;53.60;;;;;;5087408;28;20072;-55
2021/07/05 02:29:42;;;;;;;5.75;0.93;;;21.50;52.20;;;;;;5087403;28;20395;-57
2021/07/05 02:32:10;;;;;;;2.40;0.82;;;21.60;52.10;;;;;;5088633;28;20028;-58
2021/07/05 02:34:37;;;;;;;1.10;0.80;;;21.60;53.20;;;;;;5082620;28;21048;-50
2021/07/05 02:37:05;;;;;;;1.65;1.00;;;21.50;51.50;;;;;;5086925;28;20023;-57
2021/07/05 02:39:33;;;;;;;4.65;1.40;;;21.70;52.80;;;;;;5087564;28;20038;-58
2021/07/05 02:42:55;;;;;;;4.97;1.60;;;21.70;52.90;;;;;;5090182;28;20081;-59
2021/07/05 02:45:26;;;;;;;3.65;1.50;;;21.70;53.60;;;;;;5068039;28;20461;-62
2021/07/05 02:47:56;;;;;;;3.22;1.67;;;21.70;53.40;;;;;;5068993;28;20046;-52
2021/07/05 02:50:23;;;;;;;4.38;1.73;;;21.70;54.40;;;;;;5084466;28;20115;-57
2021/07/05 02:52:52;;;;;;;4.07;1.60;;;21.70;52.20;;;;;;5087122;28;20080;-59
2021/07/05 02:55:21;;;;;;;3.55;1.52;;;21.70;51.70;;;;;;5081909;28;20027;-60
2021/07/05 02:57:49;;;;;;;4.80;1.50;;;21.80;51.20;;;;;;5087591;28;20470;-57
2021/07/05 03:00:21;;;;;;;2.60;1.33;;;21.90;52.00;;;;;;5085422;28;20053;-56
2021/07/05 03:02:50;;;;;;;3.58;1.33;;;21.90;52.70;;;;;;5086941;28;20446;-55
2021/07/05 03:05:19;;;;;;;3.40;1.17;;;21.90;53.10;;;;;;5081736;28;20442;-56
2021/07/05 03:07:47;;;;;;;8.00;1.15;;;21.80;51.10;;;;;;5086110;28;20036;-56
2021/07/05 03:10:18;;;;;;;3.95;1.15;;;21.70;53.60;;;;;;5082451;28;20362;-59
2021/07/05 03:12:46;;;;;;;5.82;1.48;;;21.80;51.40;;;;;;5086968;28;20037;-53
2021/07/05 03:15:22;;;;;;;3.53;1.15;;;21.90;53.70;;;;;;5082202;28;20032;-54
2021/07/05 03:17:50;;;;;;;6.72;1.42;;;22.00;52.60;;;;;;5085375;28;20035;-57
2021/07/05 03:20:23;;;;;;;1.75;1.13;;;22.00;53.20;;;;;;5086303;28;20035;-58
2021/07/05 03:22:52;;;;;;;2.30;1.17;;;22.00;50.20;;;;;;5083948;28;20493;-58
2021/07/05 03:25:22;;;;;;;5.78;1.00;;;22.00;53.60;;;;;;5082080;28;20122;-57
2021/07/05 03:27:51;;;;;;;2.08;0.95;;;22.10;51.80;;;;;;5084030;28;20189;-55
2021/07/05 03:30:20;;;;;;;1.55;0.93;;;22.10;53.50;;;;;;5086614;28;20024;-58
2021/07/05 03:32:48;;;;;;;2.60;1.00;;;22.20;53.70;;;;;;5090426;28;20099;-55
2021/07/05 03:35:17;;;;;;;2.33;1.10;;;22.10;54.10;;;;;;5086220;28;20114;-56
2021/07/05 03:37:45;;;;;;;1.98;1.00;;;22.10;53.90;;;;;;5090995;28;20032;-53
2021/07/05 03:40:16;;;;;;;2.25;1.02;;;22.10;53.90;;;;;;5090403;28;20024;-57
2021/07/05 03:42:45;;;;;;;2.53;1.15;;;22.10;51.90;;;;;;5088145;28;20024;-55
2021/07/05 03:45:14;;;;;;;2.42;0.90;;;22.10;50.70;;;;;;5087724;28;20052;-52
2021/07/05 03:47:42;;;;;;;2.00;1.10;;;22.00;52.40;;;;;;5088525;28;20035;-56
2021/07/05 03:50:11;;;;;;;2.10;0.77;;;21.90;54.40;;;;;;5089987;28;20024;-49
2021/07/05 03:52:39;;;;;;;4.45;0.90;;;21.80;54.40;;;;;;5090235;28;20539;-53
2021/07/05 03:55:08;;;;;;;4.43;1.00;;;21.80;52.90;;;;;;5083051;28;20028;-60
2021/07/05 03:57:35;;;;;;;3.83;0.80;;;21.80;52.80;;;;;;5088498;28;20120;-57
2021/07/05 04:00:05;;;;;;;1.90;0.85;;;21.80;52.50;;;;;;5088766;28;20038;-54
2021/07/05 04:02:33;;;;;;;3.35;0.73;;;21.80;53.40;;;;;;5086653;28;20044;-56
2021/07/05 04:05:00;;;;;;;1.42;0.73;;;21.80;54.80;;;;;;5083407;28;20512;-54
2021/07/05 04:07:28;;;;;;;1.10;0.80;;;21.60;55.60;;;;;;5088451;28;20059;-55
2021/07/05 04:09:56;;;;;;;6.90;1.52;;;21.60;55.00;;;;;;5089129;28;20034;-55
2021/07/05 04:12:34;;;;;;;1.63;0.68;;;21.60;53.70;;;;;;5088771;28;20024;-50
2021/07/05 04:15:02;;;;;;;3.05;0.50;;;21.70;53.20;;;;;;5083562;28;20123;-51
2021/07/05 04:17:29;;;;;;;3.58;0.80;;;21.80;53.50;;;;;;5089138;28;20474;-58
2021/07/05 04:19:57;;;;;;;6.65;1.08;;;21.90;53.10;;;;;;5091361;28;20142;-58
2021/07/05 04:22:25;;;;;;;1.05;0.73;;;21.80;54.50;;;;;;5089450;28;20028;-54
2021/07/05 04:24:52;;;;;;;2.83;0.70;;;21.90;52.20;;;;;;5092025;28;20058;-59
2021/07/05 04:27:19;;;;;;;1.30;0.80;;;21.80;53.80;;;;;;5091530;28;20044;-56
2021/07/05 04:29:47;;;;;;;2.90;0.77;;;21.60;56.10;;;;;;5091550;28;20032;-58
2021/07/05 04:32:14;;;;;;;3.40;0.70;;;21.70;53.60;;;;;;5091537;28;20032;-58
2021/07/05 04:34:41;;;;;;;1.20;0.65;;;21.60;54.60;;;;;;5091685;28;20028;-54
2021/07/05 04:37:11;;;;;;;1.35;0.50;;;21.30;52.90;;;;;;5091730;28;20032;-56
2021/07/05 04:39:39;;;;;;;3.15;0.95;;;21.10;55.60;;;;;;5091562;28;20393;-56
2021/07/05 04:42:06;;;;;;;0.82;0.60;;;21.00;57.00;;;;;;5091432;28;20125;-56
2021/07/05 04:44:33;;;;;;;3.28;0.63;;;20.80;56.10;;;;;;5089411;28;20035;-56
2021/07/05 04:47:02;;;;;;;3.03;0.90;;;20.50;56.50;;;;;;5090855;28;20028;-56
2021/07/05 04:49:29;;;;;;;1.55;0.60;;;20.40;58.10;;;;;;5091500;28;20039;-59
2021/07/05 04:51:57;;;;;;;6.13;0.85;;;20.30;58.70;;;;;;5089810;28;20344;-55
2021/07/05 04:54:25;;;;;;;2.67;0.80;;;20.10;56.50;;;;;;5091523;28;20521;-55
2021/07/05 04:56:52;;;;;;;3.58;0.85;;;19.80;56.10;;;;;;5089793;28;20428;-56
2021/07/05 04:59:20;;;;;;;3.95;0.82;;;19.60;57.10;;;;;;5090952;28;20432;-58
2021/07/05 05:01:47;;;;;;;1.27;0.60;;;19.40;57.70;;;;;;5090820;28;20482;-58
2021/07/05 05:04:15;;;;;;;2.70;1.20;;;19.30;60.70;;;;;;5090642;28;20502;-59
2021/07/05 05:06:44;;;;;;;1.60;0.68;;;19.40;60.80;;;;;;5090575;28;20109;-58
2021/07/05 05:09:11;;;;;;;1.73;0.65;;;19.50;62.10;;;;;;5090788;28;20045;-59
2021/07/05 05:11:39;;;;;;;4.80;0.88;;;19.70;59.70;;;;;;5090766;28;20103;-60
2021/07/05 05:14:07;;;;;;;1.42;0.70;;;19.90;61.20;;;;;;5090855;28;20036;-61
2021/07/05 05:16:35;;;;;;;4.80;1.25;;;20.10;58.50;;;;;;5090354;28;20050;-59
2021/07/05 05:19:02;;;;;;;4.40;0.80;;;20.10;59.60;;;;;;5089224;28;20439;-59
2021/07/05 05:21:30;;;;;;;1.23;0.63;;;20.00;58.00;;;;;;5091090;28;20028;-60
2021/07/05 05:23:58;;;;;;;5.65;1.52;;;19.80;57.50;;;;;;5090369;28;20035;-56
2021/07/05 05:26:25;;;;;;;0.85;0.40;;;19.80;55.60;;;;;;5090109;28;20034;-56
2021/07/05 05:28:53;;;;;;;1.65;0.90;;;19.70;57.70;;;;;;5090551;28;20134;-59
2021/07/05 05:31:21;;;;;;;0.80;0.50;;;19.60;58.70;;;;;;5090321;28;20058;-54
2021/07/05 05:33:48;;;;;;;3.03;0.57;;;19.50;57.30;;;;;;5089850;28;20058;-57
2021/07/05 05:36:16;;;;;;;0.63;0.43;;;19.50;59.30;;;;;;5090092;28;20566;-58
2021/07/05 05:38:48;;;;;;;1.80;0.90;;;19.50;60.70;;;;;;5090080;28;20031;-57
2021/07/05 05:41:16;;;;;;;2.15;0.50;;;19.50;58.60;;;;;;5090169;28;20032;-58
2021/07/05 05:43:44;;;;;;;2.17;0.70;;;19.60;58.10;;;;;;5089509;28;20035;-57
2021/07/05 05:46:17;;;;;;;2.75;0.90;;;19.50;59.10;;;;;;5082542;28;20089;-55
2021/07/05 05:48:52;;;;;;;2.42;0.60;;;19.50;59.60;;;;;;5082599;28;20028;-59
2021/07/05 05:51:19;;;;;;;1.52;0.65;;;19.40;60.20;;;;;;5081370;28;20032;-59
2021/07/05 05:53:47;;;;;;;1.67;0.80;;;19.30;59.50;;;;;;5080723;28;20414;-58
2021/07/05 05:56:15;;;;;;;1.25;0.63;;;19.10;57.60;;;;;;5071880;28;20465;-53
2021/07/05 05:58:43;;;;;;;0.95;0.50;;;19.00;59.50;;;;;;5078508;28;20047;-58
2021/07/05 06:01:10;;;;;;;1.20;0.40;;;18.80;62.50;;;;;;5085685;28;20038;-58
2021/07/05 06:03:40;;;;;;;1.33;0.70;;;18.60;61.60;;;;;;5083571;28;20024;-57
2021/07/05 06:06:08;;;;;;;0.80;0.50;;;18.50;58.30;;;;;;5085816;28;20027;-57
2021/07/05 06:08:35;;;;;;;1.33;0.52;;;18.40;60.20;;;;;;5084295;28;20028;-59
2021/07/05 06:11:04;;;;;;;2.25;0.80;;;18.30;59.40;;;;;;5086084;28;20065;-61
2021/07/05 06:13:32;;;;;;;3.42;0.60;;;18.20;61.50;;;;;;5083648;28;20036;-60
2021/07/05 06:15:59;;;;;;;1.27;0.60;;;18.10;61.60;;;;;;5082160;28;20465;-60
2021/07/05 06:18:27;;;;;;;2.15;0.60;;;17.90;62.10;;;;;;5084578;28;20036;-60
2021/07/05 06:20:54;;;;;;;0.95;0.45;;;17.80;64.30;;;;;;5085630;28;20103;-58
2021/07/05 06:23:26;;;;;;;4.90;0.70;;;17.70;64.10;;;;;;5084768;28;20050;-56
2021/07/05 06:25:54;;;;;;;2.42;0.70;;;17.60;63.70;;;;;;5080731;28;20051;-57
2021/07/05 06:28:23;;;;;;;0.90;0.40;;;17.60;66.80;;;;;;5085909;28;20059;-59
2021/07/05 06:30:51;;;;;;;0.80;0.20;;;17.50;63.00;;;;;;5083941;28;20042;-51
2021/07/05 06:33:20;;;;;;;4.03;1.10;;;17.40;66.70;;;;;;5084960;28;20032;-57
2021/07/05 06:35:49;;;;;;;1.63;0.60;;;17.40;65.80;;;;;;5081133;28;20031;-58
2021/07/05 06:38:18;;;;;;;0.55;0.40;;;17.30;64.70;;;;;;5082278;28;20047;-56
2021/07/05 06:40:46;;;;;;;1.20;0.60;;;17.30;66.00;;;;;;5082522;28;20624;-54
2021/07/05 06:43:13;;;;;;;4.63;0.63;;;17.20;64.50;;;;;;5082860;28;20108;-60
2021/07/05 06:45:41;;;;;;;6.10;0.95;;;17.20;66.30;;;;;;5073825;28;20159;-56
2021/07/05 06:48:09;;;;;;;1.75;0.65;;;17.20;63.80;;;;;;5086122;28;20091;-55
2021/07/05 06:50:38;;;;;;;0.60;0.30;;;17.10;66.40;;;;;;5083462;28;20038;-58
2021/07/05 06:53:07;;;;;;;2.53;0.52;;;17.10;67.50;;;;;;5080863;28;20094;-55
2021/07/05 06:55:35;;;;;;;3.25;0.57;;;17.00;67.30;;;;;;5078361;28;20032;-61
2021/07/05 06:58:03;;;;;;;3.63;0.80;;;17.00;66.70;;;;;;5080518;28;20869;-60
2021/07/05 07:00:31;;;;;;;1.05;0.50;;;17.00;66.10;;;;;;5082630;28;20119;-57
2021/07/05 07:02:59;;;;;;;1.02;0.50;;;16.90;65.70;;;;;;5082441;28;20135;-58
2021/07/05 07:05:29;;;;;;;1.15;0.50;;;16.90;66.90;;;;;;5078073;28;20052;-55
2021/07/05 07:07:57;;;;;;;0.93;0.50;;;16.90;68.00;;;;;;5085909;28;20113;-57
2021/07/05 07:10:26;;;;;;;0.40;0.40;;;16.80;69.00;;;;;;5085404;28;20032;-59
2021/07/05 07:12:56;;;;;;;0.60;0.40;;;16.80;69.50;;;;;;5085670;28;20381;-56
2021/07/05 07:15:38;;;;;;;1.02;0.82;;;16.80;69.30;;;;;;5085660;28;20093;-56
2021/07/05 07:18:14;;;;;;;1.52;0.70;;;16.70;69.50;;;;;;5089044;28;20036;-58
2021/07/05 07:20:41;;;;;;;1.05;0.68;;;16.70;68.20;;;;;;5085327;28;20031;-54
2021/07/05 07:23:09;;;;;;;1.08;0.55;;;16.60;69.00;;;;;;5089431;28;20023;-58
2021/07/05 07:25:38;;;;;;;1.58;0.68;;;16.60;69.20;;;;;;5084289;28;20044;-57
2021/07/05 07:28:05;;;;;;;2.33;1.15;;;16.60;68.20;;;;;;5086624;28;20154;-56
2021/07/05 07:30:32;;;;;;;0.90;0.73;;;16.60;67.70;;;;;;5087021;28;20034;-58
2021/07/05 07:33:00;;;;;;;2.05;0.90;;;16.60;69.00;;;;;;5089041;28;20031;-60
2021/07/05 07:35:28;;;;;;;1.48;0.70;;;16.50;69.80;;;;;;5088713;28;20020;-54
2021/07/05 07:37:56;;;;;;;0.43;0.43;;;16.50;69.70;;;;;;5088663;28;20092;-58
2021/07/05 07:40:27;;;;;;;2.72;0.50;;;16.40;70.70;;;;;;5079634;28;20168;-57
2021/07/05 07:42:57;;;;;;;1.25;0.50;;;16.40;71.00;;;;;;5084207;28;20455;-56
2021/07/05 07:45:25;;;;;;;0.98;0.50;;;16.30;71.40;;;;;;5070885;28;20040;-57
2021/07/05 07:47:52;;;;;;;4.03;0.82;;;16.30;69.70;;;;;;5071656;28;20025;-51
2021/07/05 07:50:21;;;;;;;0.85;0.60;;;16.30;70.20;;;;;;5072428;28;20034;-53
2021/07/05 07:52:48;;;;;;;2.13;1.10;;;16.20;70.70;;;;;;5083696;28;20078;-54
2021/07/05 07:55:17;;;;;;;5.35;2.58;;;16.20;69.90;;;;;;5089573;28;20046;-56
2021/07/05 07:57:45;;;;;;;3.10;2.75;;;16.20;70.70;;;;;;5086781;28;20027;-56
2021/07/05 08:00:15;;;;;;;5.55;3.78;;;16.20;71.20;;;;;;5070309;28;20063;-56
2021/07/05 08:02:43;;;;;;;4.75;4.25;;;16.10;71.50;;;;;;5086059;28;20501;-60
2021/07/05 08:05:11;;;;;;;5.55;5.05;;;16.10;71.50;;;;;;5078765;28;20094;-56
2021/07/05 08:07:43;;;;;;;9.93;6.25;;;16.10;71.80;;;;;;5089475;28;20081;-57
2021/07/05 08:10:12;;;;;;;8.35;6.55;;;16.00;71.10;;;;;;5072923;28;20492;-59
2021/07/05 08:12:40;;;;;;;8.70;7.80;;;16.00;71.90;;;;;;5074603;28;20056;-57
2021/07/05 08:15:08;;;;;;;11.23;9.35;;;16.00;70.70;;;;;;5089608;28;20458;-59
2021/07/05 08:17:37;;;;;;;10.65;9.25;;;16.00;71.30;;;;;;5073054;28;20024;-59
2021/07/05 08:20:07;;;;;;;31.05;10.88;;;15.90;71.60;;;;;;5071634;28;20060;-59
2021/07/05 08:22:36;;;;;;;36.95;12.57;;;15.90;71.80;;;;;;5081791;28;20081;-58
2021/07/05 08:25:06;;;;;;;32.00;10.82;;;15.90;71.90;;;;;;5087909;28;20135;-55
2021/07/05 08:27:34;;;;;;;30.85;12.05;;;15.90;70.70;;;;;;5078274;28;20535;-57
2021/07/05 08:30:04;;;;;;;30.75;11.98;;;15.90;71.00;;;;;;5080928;28;20390;-57
2021/07/05 08:32:32;;;;;;;31.13;13.10;;;15.80;69.10;;;;;;5073428;28;20333;-56
2021/07/05 08:35:00;;;;;;;21.92;12.43;;;15.80;70.90;;;;;;5083082;28;20032;-56
2021/07/05 08:37:27;;;;;;;28.38;13.15;;;15.80;71.20;;;;;;5072337;28;20070;-58
2021/07/05 08:40:13;;;;;;;24.27;12.68;;;15.80;71.80;;;;;;5072868;28;20044;-55
2021/07/05 08:42:41;;;;;;;30.80;13.13;;;15.80;72.00;;;;;;5073200;28;20046;-58
2021/07/05 08:45:09;;;;;;;25.80;12.55;;;15.70;72.20;;;;;;5079328;28;20039;-58
2021/07/05 08:47:43;;;;;;;31.42;13.52;;;15.70;72.50;;;;;;5072819;28;20130;-59
2021/07/05 08:50:13;;;;;;;25.75;13.02;;;15.70;72.50;;;;;;5085617;28;20399;-54
2021/07/05 08:52:45;;;;;;;23.23;11.75;;;15.60;72.10;;;;;;5089453;28;20024;-59
2021/07/05 08:55:15;;;;;;;18.92;11.25;;;15.70;72.90;;;;;;5078218;28;20035;-55
2021/07/05 08:57:43;;;;;;;14.15;11.18;;;15.60;72.50;;;;;;5085177;28;20066;-55
2021/07/05 09:00:17;;;;;;;19.40;10.68;;;15.60;72.80;;;;;;5078904;28;20077;-52
2021/07/05 09:02:45;;;;;;;13.35;9.57;;;15.60;73.10;;;;;;5081209;28;20032;-57
2021/07/05 09:05:14;;;;;;;17.48;9.68;;;15.60;73.40;;;;;;5086432;28;20074;-57
2021/07/05 09:08:01;;;;;;;30.15;12.18;;;15.60;72.90;;;;;;5089076;28;20111;-57
2021/07/05 09:10:39;;;;;;;20.08;12.35;;;15.60;73.50;;;;;;5071439;28;20062;-54
2021/07/05 09:13:15;;;;;;;25.95;13.82;;;15.50;73.60;;;;;;5072834;28;20109;-55
2021/07/05 09:15:49;;;;;;;24.88;14.98;;;15.50;74.30;;;;;;5072061;28;20040;-56
2021/07/05 09:18:32;;;;;;;21.67;14.13;;;15.50;75.10;;;;;;5070647;28;20032;-53
2021/07/05 09:21:30;;;;;;;22.40;11.38;;;15.50;74.30;;;;;;5071804;28;20430;-54
2021/07/05 09:24:08;;;;;;;30.98;12.23;;;15.50;74.80;;;;;;5071471;28;20124;-54
2021/07/05 09:26:45;;;;;;;18.17;11.50;;;15.50;75.00;;;;;;5077893;28;20052;-56
2021/07/05 09:29:20;;;;;;;17.13;10.85;;;15.50;74.90;;;;;;5086850;28;20468;-54
2021/07/05 09:31:49;;;;;;;14.77;9.48;;;15.50;74.90;;;;;;5088085;28;20040;-51
2021/07/05 09:34:18;;;;;;;20.67;10.48;;;15.50;75.10;;;;;;5082054;28;20353;-55
2021/07/05 09:36:47;;;;;;;17.70;10.45;;;15.50;75.10;;;;;;5074954;28;20047;-53
2021/07/05 09:39:25;;;;;;;28.35;10.73;;;15.40;75.20;;;;;;5088215;28;20039;-49
2021/07/05 09:41:55;;;;;;;18.42;10.50;;;15.40;74.90;;;;;;5070906;28;20029;-50
2021/07/05 09:44:25;;;;;;;14.70;9.60;;;15.40;75.10;;;;;;5072059;28;20068;-52
2021/07/05 09:46:57;;;;;;;17.65;9.63;;;15.40;75.20;;;;;;5080615;28;20069;-52
2021/07/05 09:49:33;;;;;;;15.98;9.13;;;15.40;75.30;;;;;;5069733;28;20487;-54
2021/07/05 09:52:24;;;;;;;16.25;9.15;;;15.40;75.30;;;;;;5070718;28;20029;-55
2021/07/05 09:54:58;;;;;;;13.48;7.75;;;15.40;75.20;;;;;;5075092;28;20047;-55
2021/07/05 09:57:45;;;;;;;14.02;9.20;;;15.40;75.30;;;;;;5087301;28;20436;-56
2021/07/05 10:00:16;;;;;;;16.25;8.95;;;15.30;75.80;;;;;;5080331;28;20109;-56
2021/07/05 10:02:58;;;;;;;14.00;7.88;;;15.30;76.10;;;;;;5080215;28;20042;-50
2021/07/05 10:05:30;;;;;;;15.10;8.48;;;15.30;76.00;;;;;;5082464;28;20042;-57
2021/07/05 10:08:02;;;;;;;;;;;15.30;76.30;;;;;;5081100;28;20082;-53
2021/07/05 10:10:29;;;;;;;18.83;9.63;;;15.30;76.50;;;;;;5066655;28;19926;-56
2021/07/05 10:13:03;;;;;;;45.40;20.92;;;15.30;77.30;;;;;;5081107;28;20021;-50
2021/07/05 10:15:33;;;;;;;45.42;24.08;;;15.30;77.70;;;;;;5082728;28;20032;-47
2021/07/05 10:18:00;;;;;;;108.43;48.88;;;15.40;77.80;;;;;;5082590;28;20480;-56
2021/07/05 10:20:39;;;;;;;109.43;55.40;;;15.30;77.50;;;;;;5075962;28;20020;-49
2021/07/05 10:23:13;;;;;;;106.70;49.97;;;15.40;77.40;;;;;;5079769;28;20032;-56
2021/07/05 10:25:47;;;;;;;101.85;47.97;;;15.30;77.30;;;;;;5080988;28;20051;-54
2021/07/05 10:28:16;;;;;;;93.15;45.97;;;15.40;76.90;;;;;;5083573;28;20059;-58
2021/07/05 10:30:45;;;;;;;93.70;46.00;;;15.40;77.20;;;;;;5077390;28;20182;-52
2021/07/05 10:33:13;;;;;;;96.30;46.65;;;15.40;76.90;;;;;;5085599;28;20085;-52
2021/07/05 10:35:50;;;;;;;90.97;44.90;;;15.40;77.40;;;;;;5081716;28;20024;-58
2021/07/05 10:38:23;;;;;;;95.63;43.67;;;15.40;76.80;;;;;;5084093;28;20089;-55
2021/07/05 10:41:00;;;;;;;93.88;42.88;;;15.40;76.80;;;;;;5079047;28;20039;-55
2021/07/05 10:43:45;;;;;;;89.90;41.78;;;15.40;76.50;;;;;;5087082;28;20032;-51
2021/07/05 10:46:43;;;;;;;89.20;45.17;;;15.40;76.50;;;;;;5079974;28;20044;-53
2021/07/05 10:49:32;;;;;;;81.78;39.97;;;15.40;76.20;;;;;;5083244;28;20033;-52
2021/07/05 10:52:08;;;;;;;82.80;41.92;;;15.40;76.10;;;;;;5075627;28;20047;-54
2021/07/05 10:55:01;;;;;;;86.40;40.50;;;15.30;76.00;;;;;;5086388;28;20033;-51
2021/07/05 10:57:35;;;;;;;77.63;38.88;;;15.40;76.00;;;;;;5084182;28;20060;-52
2021/07/05 11:00:16;;;;;;;68.70;36.03;;;15.30;75.80;;;;;;5085518;28;20032;-52
2021/07/05 11:02:45;;;;;;;73.95;38.75;;;15.30;75.40;;;;;;5082020;28;20509;-54
2021/07/05 11:05:32;;;;;;;80.60;38.10;;;15.30;75.50;;;;;;5084729;28;20040;-53
2021/07/05 11:08:23;;;;;;;76.97;36.15;;;15.30;75.60;;;;;;5082179;28;20063;-55
2021/07/05 11:11:12;;;;;;;78.25;36.33;;;15.30;75.30;;;;;;5080660;28;20057;-54
2021/07/05 11:13:40;;;;;;;67.53;35.58;;;15.30;75.10;;;;;;5086265;28;20047;-53
2021/07/05 11:16:09;;;;;;;62.67;36.03;;;15.30;74.70;;;;;;5084962;28;20036;-53
2021/07/05 11:18:40;;;;;;;74.47;35.53;;;15.20;75.30;;;;;;5085026;28;20451;-50
2021/07/05 11:21:17;;;;;;;68.75;35.28;;;15.20;75.00;;;;;;5082256;28;20058;-55
2021/07/05 11:24:08;;;;;;;73.78;36.30;;;15.20;75.40;;;;;;5086798;28;20164;-54
2021/07/05 11:26:39;;;;;;;70.38;34.42;;;15.10;75.50;;;;;;5084256;28;20056;-50
2021/07/05 11:29:15;;;;;;;64.80;34.83;;;15.10;76.10;;;;;;5084992;28;20043;-56
2021/07/05 11:32:02;;;;;;;59.38;33.00;;;15.10;76.10;;;;;;5081541;28;20024;-57
2021/07/05 11:34:56;;;;;;;64.63;32.40;;;15.00;75.60;;;;;;5086436;28;20032;-50
2021/07/05 11:37:23;;;;;;;57.28;31.35;;;15.00;75.80;;;;;;5080534;28;20040;-54
2021/07/05 11:39:56;;;;;;;59.45;30.17;;;15.00;75.90;;;;;;5082281;28;20501;-54
2021/07/05 11:42:43;;;;;;;62.33;29.55;;;15.00;76.20;;;;;;5076802;28;20034;-55
2021/07/05 11:45:11;;;;;;;55.75;29.60;;;14.90;76.20;;;;;;5084400;28;20064;-50
2021/07/05 11:47:41;;;;;;;58.88;30.63;;;14.90;76.10;;;;;;5085348;28;20036;-55
2021/07/05 11:50:30;;;;;;;59.83;28.75;;;14.90;76.00;;;;;;5084975;28;20551;-51
2021/07/05 11:53:00;;;;;;;58.42;27.17;;;14.80;75.70;;;;;;5085888;28;20031;-52
2021/07/05 11:55:30;;;;;;;52.78;28.25;;;14.90;76.00;;;;;;5087522;28;20058;-53
2021/07/05 11:58:06;;;;;;;48.20;25.83;;;14.80;75.90;;;;;;5087830;28;20055;-56
2021/07/05 12:00:40;;;;;;;48.75;28.23;;;14.80;75.80;;;;;;5083567;28;20032;-59
2021/07/05 12:03:09;;;;;;;58.47;26.23;;;14.80;75.70;;;;;;5088659;28;20743;-58
2021/07/05 12:05:40;;;;;;;48.45;26.83;;;14.80;75.70;;;;;;5087958;28;20047;-53
2021/07/05 12:08:13;;;;;;;46.83;24.90;;;14.80;75.60;;;;;;5089085;28;20058;-54
2021/07/05 12:10:45;;;;;;;43.05;25.50;;;14.80;76.20;;;;;;5080117;28;20032;-62
2021/07/05 12:13:26;;;;;;;39.33;23.15;;;14.80;75.60;;;;;;5087227;28;20689;-54
2021/07/05 12:16:00;;;;;;;42.78;23.48;;;14.70;75.70;;;;;;5084250;28;20341;-52
2021/07/05 12:18:28;;;;;;;45.03;23.02;;;14.70;75.70;;;;;;5084663;28;20040;-51
2021/07/05 12:20:59;;;;;;;47.25;25.55;;;14.70;75.60;;;;;;5080808;28;20451;-56
2021/07/05 12:23:39;;;;;;;47.10;23.60;;;14.70;75.50;;;;;;5085181;28;20065;-48
2021/07/05 12:26:21;;;;;;;42.83;22.98;;;14.70;75.70;;;;;;5086342;28;20055;-58
2021/07/05 12:29:12;;;;;;;41.13;21.83;;;14.70;75.60;;;;;;5085284;28;20071;-54
2021/07/05 12:31:58;;;;;;;42.30;21.08;;;14.70;75.20;;;;;;5082997;28;20035;-51
2021/07/05 12:34:43;;;;;;;36.20;19.77;;;14.70;75.20;;;;;;5085633;28;20108;-52
2021/07/05 12:37:18;;;;;;;35.33;20.42;;;14.60;75.00;;;;;;5085095;28;20024;-55
2021/07/05 12:39:52;;;;;;;40.17;21.08;;;14.60;75.00;;;;;;5088201;28;20040;-52
2021/07/05 12:42:29;;;;;;;37.65;19.48;;;14.60;75.00;;;;;;5082853;28;20028;-55
2021/07/05 12:44:58;;;;;;;40.92;19.52;;;14.60;75.10;;;;;;5082198;28;20098;-52
2021/07/05 12:47:26;;;;;;;64.28;22.88;;;14.50;75.00;;;;;;5077750;28;20028;-51
2021/07/05 12:49:55;;;;;;;33.40;19.65;;;14.50;75.00;;;;;;5088120;28;20048;-55
2021/07/05 12:52:22;;;;;;;32.97;18.48;;;14.50;75.10;;;;;;5088897;28;20056;-55
2021/07/05 12:55:09;;;;;;;32.05;17.00;;;14.50;74.90;;;;;;5085414;28;20210;-50
2021/07/05 12:57:49;;;;;;;33.50;18.42;;;14.50;75.00;;;;;;5085476;28;20093;-50
2021/07/05 13:00:18;;;;;;;35.50;18.67;;;14.50;75.10;;;;;;5083821;28;20028;-54